sensor_id;sensor_type;location;lat;lon;timestamp;pressure;altitude;pressure_sealevel;temperature;humidity
61618;BME280;47518;51.776;9.370;2023-04-26T00:01:35;100368.00;;;4.92;70.67
61618;BME280;47518;51.776;9.370;2023-04-26T00:04:00;100373.00;;;5.06;71.46
61618;BME280;47518;51.776;9.370;2023-04-26T00:06:27;100376.13;;;5.02;71.04
61618;BME280;47518;51.776;9.370;2023-04-26T00:08:52;100372.69;;;5.09;70.69
61618;BME280;47518;51.776;9.370;2023-04-26T00:11:17;100369.31;;;5.17;70.73
61618;BME280;47518;51.776;9.370;2023-04-26T00:13:43;100368.59;;;5.05;70.35
61618;BME280;47518;51.776;9.370;2023-04-26T00:16:08;100372.84;;;5.08;70.59
61618;BME280;47518;51.776;9.370;2023-04-26T00:18:33;100374.84;;;5.15;70.09
61618;BME280;47518;51.776;9.370;2023-04-26T00:20:58;100368.00;;;4.92;69.94
61618;BME280;47518;51.776;9.370;2023-04-26T00:23:24;100368.75;;;5.04;70.60
61618;BME280;47518;51.776;9.370;2023-04-26T00:25:58;100374.56;;;5.09;70.62
61618;BME280;47518;51.776;9.370;2023-04-26T00:28:23;100377.50;;;4.96;71.13
61618;BME280;47518;51.776;9.370;2023-04-26T00:30:52;100370.81;;;4.81;71.64
61618;BME280;47518;51.776;9.370;2023-04-26T00:33:17;100372.53;;;4.82;72.05
61618;BME280;47518;51.776;9.370;2023-04-26T00:36:07;100374.69;;;4.88;71.71
61618;BME280;47518;51.776;9.370;2023-04-26T00:38:32;100375.66;;;4.77;72.49
61618;BME280;47518;51.776;9.370;2023-04-26T00:40:57;100372.38;;;4.83;72.48
61618;BME280;47518;51.776;9.370;2023-04-26T00:43:23;100370.00;;;4.90;72.82
61618;BME280;47518;51.776;9.370;2023-04-26T00:45:51;100371.53;;;4.83;72.85
61618;BME280;47518;51.776;9.370;2023-04-26T00:48:17;100372.00;;;4.88;72.61
61618;BME280;47518;51.776;9.370;2023-04-26T00:50:43;100367.84;;;4.84;72.71
61618;BME280;47518;51.776;9.370;2023-04-26T00:53:08;100371.84;;;4.89;73.24
61618;BME280;47518;51.776;9.370;2023-04-26T00:55:34;100372.97;;;4.87;73.36
61618;BME280;47518;51.776;9.370;2023-04-26T00:58:00;100372.38;;;4.83;73.94
61618;BME280;47518;51.776;9.370;2023-04-26T01:00:26;100375.66;;;4.77;74.26
61618;BME280;47518;51.776;9.370;2023-04-26T01:02:51;100379.72;;;4.72;74.53
61618;BME280;47518;51.776;9.370;2023-04-26T01:05:33;100374.34;;;4.72;74.26
61618;BME280;47518;51.776;9.370;2023-04-26T01:08:17;100381.09;;;4.56;73.56
61618;BME280;47518;51.776;9.370;2023-04-26T01:10:46;100383.22;;;4.62;74.09
61618;BME280;47518;51.776;9.370;2023-04-26T01:13:12;100391.13;;;4.45;74.56
61618;BME280;47518;51.776;9.370;2023-04-26T01:15:57;100384.59;;;4.47;74.44
61618;BME280;47518;51.776;9.370;2023-04-26T01:18:23;100383.78;;;4.56;74.15
61618;BME280;47518;51.776;9.370;2023-04-26T01:20:50;100384.19;;;4.42;74.75
61618;BME280;47518;51.776;9.370;2023-04-26T01:23:17;100390.13;;;4.46;74.63
61618;BME280;47518;51.776;9.370;2023-04-26T01:25:46;100389.56;;;4.42;74.60
61618;BME280;47518;51.776;9.370;2023-04-26T01:28:17;100391.06;;;4.35;75.39
61618;BME280;47518;51.776;9.370;2023-04-26T01:30:43;100397.22;;;4.47;75.23
61618;BME280;47518;51.776;9.370;2023-04-26T01:33:08;100393.41;;;4.49;74.73
61618;BME280;47518;51.776;9.370;2023-04-26T01:35:50;100383.19;;;4.43;74.92
61618;BME280;47518;51.776;9.370;2023-04-26T01:38:22;100392.13;;;4.44;75.13
61618;BME280;47518;51.776;9.370;2023-04-26T01:40:50;100385.69;;;4.35;75.81
61618;BME280;47518;51.776;9.370;2023-04-26T01:43:18;100388.75;;;4.21;75.63
61618;BME280;47518;51.776;9.370;2023-04-26T01:45:46;100382.16;;;4.34;74.97
61618;BME280;47518;51.776;9.370;2023-04-26T01:48:12;100389.47;;;4.23;75.33
61618;BME280;47518;51.776;9.370;2023-04-26T01:50:37;100390.78;;;4.28;75.30
61618;BME280;47518;51.776;9.370;2023-04-26T01:53:02;100390.44;;;4.22;76.30
61618;BME280;47518;51.776;9.370;2023-04-26T01:55:40;100376.50;;;4.07;76.01
61618;BME280;47518;51.776;9.370;2023-04-26T01:58:06;100385.94;;;4.01;76.33
61618;BME280;47518;51.776;9.370;2023-04-26T02:00:31;100378.06;;;4.09;75.85
61618;BME280;47518;51.776;9.370;2023-04-26T02:02:56;100383.31;;;3.90;76.05
61618;BME280;47518;51.776;9.370;2023-04-26T02:05:22;100383.31;;;3.90;76.68
61618;BME280;47518;51.776;9.370;2023-04-26T02:07:49;100389.19;;;3.95;76.52
61618;BME280;47518;51.776;9.370;2023-04-26T02:10:15;100388.56;;;3.92;76.09
61618;BME280;47518;51.776;9.370;2023-04-26T02:12:43;100379.41;;;3.94;76.27
61618;BME280;47518;51.776;9.370;2023-04-26T02:15:09;100384.59;;;3.86;76.56
61618;BME280;47518;51.776;9.370;2023-04-26T02:17:34;100382.16;;;3.83;76.21
61618;BME280;47518;51.776;9.370;2023-04-26T02:20:02;100388.78;;;3.79;76.56
61618;BME280;47518;51.776;9.370;2023-04-26T02:22:28;100392.50;;;3.67;77.22
61618;BME280;47518;51.776;9.370;2023-04-26T02:24:53;100384.72;;;3.64;77.62
61618;BME280;47518;51.776;9.370;2023-04-26T02:27:19;100387.66;;;3.61;77.73
61618;BME280;47518;51.776;9.370;2023-04-26T02:29:44;100395.78;;;3.49;77.23
61618;BME280;47518;51.776;9.370;2023-04-26T02:32:12;100392.13;;;3.50;76.31
61618;BME280;47518;51.776;9.370;2023-04-26T02:34:38;100389.97;;;3.33;77.12
61618;BME280;47518;51.776;9.370;2023-04-26T02:37:03;100391.28;;;3.18;77.27
61618;BME280;47518;51.776;9.370;2023-04-26T02:39:29;100389.22;;;3.10;78.20
61618;BME280;47518;51.776;9.370;2023-04-26T02:41:54;100391.84;;;3.21;77.27
61618;BME280;47518;51.776;9.370;2023-04-26T02:44:19;100389.06;;;3.12;77.64
61618;BME280;47518;51.776;9.370;2023-04-26T02:46:45;100386.56;;;2.99;79.38
61618;BME280;47518;51.776;9.370;2023-04-26T02:49:10;100391.56;;;3.04;79.18
61618;BME280;47518;51.776;9.370;2023-04-26T02:51:36;100390.84;;;3.02;79.21
61618;BME280;47518;51.776;9.370;2023-04-26T02:54:01;100383.25;;;3.07;79.16
61618;BME280;47518;51.776;9.370;2023-04-26T02:56:30;100388.22;;;3.11;79.43
61618;BME280;47518;51.776;9.370;2023-04-26T02:58:55;100381.63;;;3.15;78.87
61618;BME280;47518;51.776;9.370;2023-04-26T03:01:24;100389.47;;;3.07;79.20
61618;BME280;47518;51.776;9.370;2023-04-26T03:03:49;100380.44;;;3.08;78.82
61618;BME280;47518;51.776;9.370;2023-04-26T03:06:15;100386.69;;;2.98;78.24
61618;BME280;47518;51.776;9.370;2023-04-26T03:08:41;100383.88;;;2.99;79.19
61618;BME280;47518;51.776;9.370;2023-04-26T03:11:08;100389.88;;;2.91;79.61
61618;BME280;47518;51.776;9.370;2023-04-26T03:13:34;100393.06;;;2.85;79.86
61618;BME280;47518;51.776;9.370;2023-04-26T03:15:59;100384.16;;;2.85;78.38
61618;BME280;47518;51.776;9.370;2023-04-26T03:18:27;100400.16;;;2.75;78.57
61618;BME280;47518;51.776;9.370;2023-04-26T03:20:52;100395.19;;;2.59;80.32
61618;BME280;47518;51.776;9.370;2023-04-26T03:23:18;100399.31;;;2.75;78.83
61618;BME280;47518;51.776;9.370;2023-04-26T03:26:01;100388.81;;;2.72;78.85
61618;BME280;47518;51.776;9.370;2023-04-26T03:28:27;100395.03;;;2.72;79.36
61618;BME280;47518;51.776;9.370;2023-04-26T03:30:59;100395.03;;;2.72;79.38
61618;BME280;47518;51.776;9.370;2023-04-26T03:33:24;100401.88;;;2.65;80.26
61618;BME280;47518;51.776;9.370;2023-04-26T03:36:05;100395.44;;;2.34;79.32
61618;BME280;47518;51.776;9.370;2023-04-26T03:38:36;100389.09;;;2.24;80.03
61618;BME280;47518;51.776;9.370;2023-04-26T03:41:01;100387.88;;;2.28;79.12
61618;BME280;47518;51.776;9.370;2023-04-26T03:43:26;100379.09;;;2.26;79.70
61618;BME280;47518;51.776;9.370;2023-04-26T03:46:00;100388.97;;;2.25;79.27
61618;BME280;47518;51.776;9.370;2023-04-26T03:48:26;100393.25;;;2.39;80.39
61618;BME280;47518;51.776;9.370;2023-04-26T03:50:51;100395.06;;;2.39;80.89
61618;BME280;47518;51.776;9.370;2023-04-26T03:53:17;100382.88;;;2.46;80.75
61618;BME280;47518;51.776;9.370;2023-04-26T03:55:53;100391.16;;;2.43;81.05
61618;BME280;47518;51.776;9.370;2023-04-26T03:58:18;100386.16;;;2.49;81.08
61618;BME280;47518;51.776;9.370;2023-04-26T04:00:44;100389.94;;;2.24;81.33
61618;BME280;47518;51.776;9.370;2023-04-26T04:03:12;100390.56;;;2.39;81.16
61618;BME280;47518;51.776;9.370;2023-04-26T04:06:06;100390.09;;;2.34;80.52
61618;BME280;47518;51.776;9.370;2023-04-26T04:08:32;100394.94;;;2.18;80.52
61618;BME280;47518;51.776;9.370;2023-04-26T04:10:58;100389.22;;;2.33;79.92
61618;BME280;47518;51.776;9.370;2023-04-26T04:13:23;100378.38;;;2.24;80.04
61618;BME280;47518;51.776;9.370;2023-04-26T04:16:07;100388.38;;;2.33;79.92
61618;BME280;47518;51.776;9.370;2023-04-26T04:18:34;100393.97;;;2.30;80.30
61618;BME280;47518;51.776;9.370;2023-04-26T04:20:59;100390.81;;;2.36;80.56
61618;BME280;47518;51.776;9.370;2023-04-26T04:23:25;100397.41;;;2.32;80.89
61618;BME280;47518;51.776;9.370;2023-04-26T04:26:09;100399.97;;;2.33;79.94
61618;BME280;47518;51.776;9.370;2023-04-26T04:28:37;100392.38;;;2.39;80.70
61618;BME280;47518;51.776;9.370;2023-04-26T04:31:03;100399.84;;;2.46;80.48
61618;BME280;47518;51.776;9.370;2023-04-26T04:33:28;100403.25;;;2.48;80.90
61618;BME280;47518;51.776;9.370;2023-04-26T04:36:12;100397.16;;;2.57;81.60
61618;BME280;47518;51.776;9.370;2023-04-26T04:38:40;100403.84;;;2.63;81.21
61618;BME280;47518;51.776;9.370;2023-04-26T04:41:06;100400.44;;;2.61;80.61
61618;BME280;47518;51.776;9.370;2023-04-26T04:43:32;100402.84;;;2.64;80.85
61618;BME280;47518;51.776;9.370;2023-04-26T04:46:01;100398.84;;;2.70;81.31
61618;BME280;47518;51.776;9.370;2023-04-26T04:48:27;100403.78;;;2.97;80.80
61618;BME280;47518;51.776;9.370;2023-04-26T04:51:04;100406.97;;;2.90;79.22
61618;BME280;47518;51.776;9.370;2023-04-26T04:53:30;100408.34;;;2.62;77.66
61618;BME280;47518;51.776;9.370;2023-04-26T04:58:47;100407.91;;;3.01;78.43
61618;BME280;47518;51.776;9.370;2023-04-26T05:01:13;100421.06;;;3.26;78.59
61618;BME280;47518;51.776;9.370;2023-04-26T05:03:39;100414.13;;;3.44;79.04
61618;BME280;47518;51.776;9.370;2023-04-26T05:06:05;100418.78;;;3.42;79.35
61618;BME280;47518;51.776;9.370;2023-04-26T05:08:32;100413.94;;;3.57;78.92
61618;BME280;47518;51.776;9.370;2023-04-26T05:10:57;100421.75;;;3.81;77.99
61618;BME280;47518;51.776;9.370;2023-04-26T05:13:29;100422.44;;;3.94;77.79
61618;BME280;47518;51.776;9.370;2023-04-26T05:15:57;100417.88;;;4.16;77.16
61618;BME280;47518;51.776;9.370;2023-04-26T05:18:25;100421.19;;;4.19;77.63
61618;BME280;47518;51.776;9.370;2023-04-26T05:20:51;100407.78;;;4.29;76.27
61618;BME280;47518;51.776;9.370;2023-04-26T05:23:22;100419.06;;;4.53;76.09
61618;BME280;47518;51.776;9.370;2023-04-26T05:26:48;100413.47;;;4.66;75.05
61618;BME280;47518;51.776;9.370;2023-04-26T05:29:14;100429.28;;;4.59;75.70
61618;BME280;47518;51.776;9.370;2023-04-26T05:31:43;100434.22;;;4.24;76.26
61618;BME280;47518;51.776;9.370;2023-04-26T05:38:09;100429.22;;;4.40;76.25
61618;BME280;47518;51.776;9.370;2023-04-26T05:44:26;100436.13;;;4.63;75.17
61618;BME280;47518;51.776;9.370;2023-04-26T05:51:30;100447.88;;;4.32;76.41
61618;BME280;47518;51.776;9.370;2023-04-26T05:53:58;100444.31;;;4.52;76.35
61618;BME280;47518;51.776;9.370;2023-04-26T05:56:34;100457.22;;;5.08;73.88
61618;BME280;47518;51.776;9.370;2023-04-26T05:59:02;100444.38;;;4.41;74.93
61618;BME280;47518;51.776;9.370;2023-04-26T06:01:43;100444.63;;;4.68;75.68
61618;BME280;47518;51.776;9.370;2023-04-26T06:04:08;100437.34;;;4.90;74.73
61618;BME280;47518;51.776;9.370;2023-04-26T06:06:40;100439.00;;;5.21;73.30
61618;BME280;47518;51.776;9.370;2023-04-26T06:34:40;100449.25;;;5.95;69.07
61618;BME280;47518;51.776;9.370;2023-04-26T06:37:05;100439.16;;;5.88;69.22
61618;BME280;47518;51.776;9.370;2023-04-26T06:39:43;100447.09;;;5.89;67.96
61618;BME280;47518;51.776;9.370;2023-04-26T06:42:18;100445.97;;;6.01;68.26
61618;BME280;47518;51.776;9.370;2023-04-26T06:44:44;100450.41;;;6.02;68.96
61618;BME280;47518;51.776;9.370;2023-04-26T06:50:28;100450.94;;;6.16;67.75
61618;BME280;47518;51.776;9.370;2023-04-26T06:53:15;100466.69;;;6.30;67.78
61618;BME280;47518;51.776;9.370;2023-04-26T06:55:47;100448.84;;;6.47;68.48
61618;BME280;47518;51.776;9.370;2023-04-26T06:58:33;100460.50;;;6.57;65.76
61618;BME280;47518;51.776;9.370;2023-04-26T07:01:07;100458.53;;;6.49;67.07
61618;BME280;47518;51.776;9.370;2023-04-26T07:06:34;100450.00;;;6.81;64.77
61618;BME280;47518;51.776;9.370;2023-04-26T07:09:06;100449.84;;;6.83;64.90
61618;BME280;47518;51.776;9.370;2023-04-26T07:11:32;100457.56;;;6.40;66.02
61618;BME280;47518;51.776;9.370;2023-04-26T07:13:57;100458.44;;;6.68;65.82
61618;BME280;47518;51.776;9.370;2023-04-26T07:16:23;100454.09;;;6.58;64.97
61618;BME280;47518;51.776;9.370;2023-04-26T07:18:51;100460.72;;;6.73;64.31
61618;BME280;47518;51.776;9.370;2023-04-26T07:21:19;100452.19;;;6.68;63.91
61618;BME280;47518;51.776;9.370;2023-04-26T07:23:44;100454.06;;;6.67;64.99
61618;BME280;47518;51.776;9.370;2023-04-26T07:26:13;100448.81;;;6.93;62.74
61618;BME280;47518;51.776;9.370;2023-04-26T07:28:38;100467.22;;;6.80;62.76
61618;BME280;47518;51.776;9.370;2023-04-26T07:31:12;100451.16;;;6.79;62.81
61618;BME280;47518;51.776;9.370;2023-04-26T07:33:38;100452.88;;;6.80;62.32
61618;BME280;47518;51.776;9.370;2023-04-26T07:39:11;100461.63;;;6.91;63.12
61618;BME280;47518;51.776;9.370;2023-04-26T07:41:40;100461.19;;;7.23;61.68
61618;BME280;47518;51.776;9.370;2023-04-26T07:44:06;100460.34;;;7.23;60.15
61618;BME280;47518;51.776;9.370;2023-04-26T07:46:32;100456.03;;;7.30;60.74
61618;BME280;47518;51.776;9.370;2023-04-26T07:48:59;100468.03;;;7.45;59.52
61618;BME280;47518;51.776;9.370;2023-04-26T07:51:24;100463.72;;;7.25;60.86
61618;BME280;47518;51.776;9.370;2023-04-26T07:53:51;100458.53;;;7.77;59.32
61618;BME280;47518;51.776;9.370;2023-04-26T07:56:18;100459.84;;;7.73;59.51
61618;BME280;47518;51.776;9.370;2023-04-26T07:58:53;100459.91;;;7.45;59.24
61618;BME280;47518;51.776;9.370;2023-04-26T08:01:21;100456.94;;;7.39;59.16
61618;BME280;47518;51.776;9.370;2023-04-26T08:03:46;100460.00;;;7.53;59.39
61618;BME280;47518;51.776;9.370;2023-04-26T08:06:13;100460.31;;;7.68;58.51
61618;BME280;47518;51.776;9.370;2023-04-26T08:08:39;100444.84;;;7.78;58.68
61618;BME280;47518;51.776;9.370;2023-04-26T08:11:08;100449.03;;;7.55;57.04
61618;BME280;47518;51.776;9.370;2023-04-26T08:13:34;100457.28;;;7.53;56.26
61618;BME280;47518;51.776;9.370;2023-04-26T08:16:05;100458.44;;;7.51;56.90
61618;BME280;47518;51.776;9.370;2023-04-26T08:18:34;100457.81;;;7.57;57.73
61618;BME280;47518;51.776;9.370;2023-04-26T08:21:01;100461.53;;;7.56;56.28
61618;BME280;47518;51.776;9.370;2023-04-26T08:23:27;100474.13;;;7.47;57.65
61618;BME280;47518;51.776;9.370;2023-04-26T08:25:53;100460.31;;;7.68;57.98
61618;BME280;47518;51.776;9.370;2023-04-26T08:28:19;100457.22;;;7.81;56.14
61618;BME280;47518;51.776;9.370;2023-04-26T08:30:45;100458.06;;;7.99;54.66
61618;BME280;47518;51.776;9.370;2023-04-26T08:33:13;100466.75;;;8.29;53.36
61618;BME280;47518;51.776;9.370;2023-04-26T08:35:39;100463.84;;;7.86;52.56
61618;BME280;47518;51.776;9.370;2023-04-26T08:38:05;100463.41;;;7.91;52.76
61618;BME280;47518;51.776;9.370;2023-04-26T08:40:30;100463.47;;;7.99;51.69
61618;BME280;47518;51.776;9.370;2023-04-26T08:43:00;100468.66;;;8.10;52.84
61618;BME280;47518;51.776;9.370;2023-04-26T08:45:25;100459.91;;;7.81;52.89
61618;BME280;47518;51.776;9.370;2023-04-26T08:47:52;100473.09;;;8.19;52.37
61618;BME280;47518;51.776;9.370;2023-04-26T08:50:22;100474.19;;;8.09;52.54
61618;BME280;47518;51.776;9.370;2023-04-26T08:52:51;100465.81;;;7.76;53.29
61618;BME280;47518;51.776;9.370;2023-04-26T08:55:18;100472.34;;;7.74;53.65
61618;BME280;47518;51.776;9.370;2023-04-26T08:57:48;100470.88;;;7.61;54.00
61618;BME280;47518;51.776;9.370;2023-04-26T09:00:17;100470.66;;;7.73;53.85
61618;BME280;47518;51.776;9.370;2023-04-26T09:02:48;100470.81;;;7.89;53.11
61618;BME280;47518;51.776;9.370;2023-04-26T09:05:15;100471.66;;;8.33;52.62
61618;BME280;47518;51.776;9.370;2023-04-26T09:07:55;100466.56;;;8.30;52.64
61618;BME280;47518;51.776;9.370;2023-04-26T09:10:21;100477.66;;;8.37;52.35
61618;BME280;47518;51.776;9.370;2023-04-26T09:12:51;100477.72;;;8.27;51.81
61618;BME280;47518;51.776;9.370;2023-04-26T09:15:17;100464.03;;;8.46;49.74
61618;BME280;47518;51.776;9.370;2023-04-26T09:17:45;100466.16;;;8.61;50.26
61618;BME280;47518;51.776;9.370;2023-04-26T09:20:28;100464.38;;;8.52;51.02
61618;BME280;47518;51.776;9.370;2023-04-26T09:23:12;100471.91;;;8.66;48.71
61618;BME280;47518;51.776;9.370;2023-04-26T09:26:17;100463.69;;;8.32;51.88
61618;BME280;47518;51.776;9.370;2023-04-26T09:29:17;100468.75;;;8.27;53.27
61618;BME280;47518;51.776;9.370;2023-04-26T09:32:07;100467.06;;;8.08;52.05
61618;BME280;47518;51.776;9.370;2023-04-26T09:34:44;100466.84;;;8.37;50.46
61618;BME280;47518;51.776;9.370;2023-04-26T09:37:11;100462.66;;;8.76;48.13
61618;BME280;47518;51.776;9.370;2023-04-26T09:39:43;100457.06;;;9.12;46.65
61618;BME280;47518;51.776;9.370;2023-04-26T09:42:15;100461.13;;;9.08;46.14
61618;BME280;47518;51.776;9.370;2023-04-26T09:45:09;100463.44;;;8.61;50.15
61618;BME280;47518;51.776;9.370;2023-04-26T09:48:22;100470.06;;;8.66;47.22
61618;BME280;47518;51.776;9.370;2023-04-26T09:50:55;100465.75;;;9.16;49.32
61618;BME280;47518;51.776;9.370;2023-04-26T09:53:46;100475.38;;;8.76;47.97
61618;BME280;47518;51.776;9.370;2023-04-26T09:56:25;100469.78;;;8.77;49.89
61618;BME280;47518;51.776;9.370;2023-04-26T09:59:01;100472.75;;;8.92;48.80
61618;BME280;47518;51.776;9.370;2023-04-26T10:04:26;100460.94;;;9.52;45.11
61618;BME280;47518;51.776;9.370;2023-04-26T10:07:20;100466.91;;;9.13;47.62
61618;BME280;47518;51.776;9.370;2023-04-26T10:09:56;100471.75;;;9.01;48.53
61618;BME280;47518;51.776;9.370;2023-04-26T10:12:32;100471.25;;;8.98;48.27
61618;BME280;47518;51.776;9.370;2023-04-26T10:15:24;100468.59;;;9.06;48.11
61618;BME280;47518;51.776;9.370;2023-04-26T10:18:26;100473.44;;;8.94;48.39
61618;BME280;47518;51.776;9.370;2023-04-26T10:21:40;100474.47;;;8.41;47.41
61618;BME280;47518;51.776;9.370;2023-04-26T10:28:56;100461.66;;;8.26;49.19
61618;BME280;47518;51.776;9.370;2023-04-26T10:31:09;100455.56;;;8.32;49.76
61618;BME280;47518;51.776;9.370;2023-04-26T10:33:44;100459.06;;;8.42;48.85
61618;BME280;47518;51.776;9.370;2023-04-26T10:46:41;100448.88;;;8.62;44.17
61618;BME280;47518;51.776;9.370;2023-04-26T10:49:19;100452.09;;;8.65;45.23
61618;BME280;47518;51.776;9.370;2023-04-26T10:52:17;100452.78;;;8.67;47.25
61618;BME280;47518;51.776;9.370;2023-04-26T10:54:53;100449.81;;;8.53;47.29
61618;BME280;47518;51.776;9.370;2023-04-26T11:00:17;100456.28;;;8.34;46.18
61618;BME280;47518;51.776;9.370;2023-04-26T11:02:52;100450.34;;;8.56;47.07
61618;BME280;47518;51.776;9.370;2023-04-26T11:13:46;100452.50;;;9.13;44.64
61618;BME280;47518;51.776;9.370;2023-04-26T11:16:15;100458.66;;;8.81;45.90
61618;BME280;47518;51.776;9.370;2023-04-26T11:18:43;100452.31;;;8.72;47.17
61618;BME280;47518;51.776;9.370;2023-04-26T11:21:13;100448.47;;;8.83;46.04
61618;BME280;47518;51.776;9.370;2023-04-26T11:23:52;100452.88;;;8.84;47.48
61618;BME280;47518;51.776;9.370;2023-04-26T11:26:31;100456.06;;;8.79;46.37
61618;BME280;47518;51.776;9.370;2023-04-26T11:29:01;100447.78;;;8.46;49.86
61618;BME280;47518;51.776;9.370;2023-04-26T11:31:33;100449.19;;;8.59;46.99
61618;BME280;47518;51.776;9.370;2023-04-26T11:34:12;100455.66;;;9.00;48.28
61618;BME280;47518;51.776;9.370;2023-04-26T11:36:50;100456.03;;;9.05;47.17
61618;BME280;47518;51.776;9.370;2023-04-26T11:39:26;100458.81;;;9.21;48.29
61618;BME280;47518;51.776;9.370;2023-04-26T11:42:06;100467.53;;;8.99;48.13
61618;BME280;47518;51.776;9.370;2023-04-26T11:45:07;100462.50;;;9.12;48.81
61618;BME280;47518;51.776;9.370;2023-04-26T11:47:37;100456.28;;;8.86;48.17
61618;BME280;47518;51.776;9.370;2023-04-26T11:50:09;100463.06;;;8.82;48.58
61618;BME280;47518;51.776;9.370;2023-04-26T11:52:54;100458.06;;;8.69;49.78
61618;BME280;47518;51.776;9.370;2023-04-26T11:55:34;100463.75;;;8.58;48.11
61618;BME280;47518;51.776;9.370;2023-04-26T11:58:16;100461.84;;;8.50;48.03
61618;BME280;47518;51.776;9.370;2023-04-26T12:01:00;100466.38;;;8.75;47.02
61618;BME280;47518;51.776;9.370;2023-04-26T12:03:31;100475.59;;;8.83;48.46
61618;BME280;47518;51.776;9.370;2023-04-26T12:06:29;100469.16;;;8.84;48.04
61618;BME280;47518;51.776;9.370;2023-04-26T12:09:28;100472.56;;;8.86;49.88
61618;BME280;47518;51.776;9.370;2023-04-26T12:12:03;100481.75;;;8.67;49.39
61618;BME280;47518;51.776;9.370;2023-04-26T12:14:36;100483.31;;;8.26;51.94
61618;BME280;47518;51.776;9.370;2023-04-26T12:17:17;100484.63;;;8.39;50.86
61618;BME280;47518;51.776;9.370;2023-04-26T12:20:11;100488.09;;;8.50;50.63
61618;BME280;47518;51.776;9.370;2023-04-26T12:23:05;100478.75;;;8.70;48.70
61618;BME280;47518;51.776;9.370;2023-04-26T12:25:55;100468.31;;;8.83;48.89
61618;BME280;47518;51.776;9.370;2023-04-26T12:28:38;100480.38;;;8.63;48.93
61618;BME280;47518;51.776;9.370;2023-04-26T12:31:11;100474.13;;;8.62;48.51
61618;BME280;47518;51.776;9.370;2023-04-26T12:33:43;100479.31;;;9.16;48.58
61618;BME280;47518;51.776;9.370;2023-04-26T12:36:37;100475.53;;;9.59;47.06
61618;BME280;47518;51.776;9.370;2023-04-26T12:39:14;100467.94;;;9.95;45.15
61618;BME280;47518;51.776;9.370;2023-04-26T12:41:53;100472.56;;;10.43;46.09
61618;BME280;47518;51.776;9.370;2023-04-26T12:44:23;100459.41;;;11.19;42.00
61618;BME280;47518;51.776;9.370;2023-04-26T12:49:39;100460.97;;;11.44;41.60
61618;BME280;47518;51.776;9.370;2023-04-26T12:52:26;100447.25;;;10.43;43.13
61618;BME280;47518;51.776;9.370;2023-04-26T12:54:54;100452.69;;;10.27;44.62
61618;BME280;47518;51.776;9.370;2023-04-26T12:57:26;100453.31;;;10.53;41.57
61618;BME280;47518;51.776;9.370;2023-04-26T12:59:54;100460.13;;;9.84;44.46
61618;BME280;47518;51.776;9.370;2023-04-26T13:02:27;100463.38;;;10.20;46.15
61618;BME280;47518;51.776;9.370;2023-04-26T13:04:55;100459.28;;;10.16;43.39
61618;BME280;47518;51.776;9.370;2023-04-26T13:07:27;100467.25;;;10.17;43.60
61618;BME280;47518;51.776;9.370;2023-04-26T13:09:53;100459.09;;;9.93;44.27
61618;BME280;47518;51.776;9.370;2023-04-26T13:12:19;100467.59;;;9.74;45.54
61618;BME280;47518;51.776;9.370;2023-04-26T13:14:44;100467.38;;;9.51;44.64
61618;BME280;47518;51.776;9.370;2023-04-26T13:17:10;100465.50;;;9.59;44.83
61618;BME280;47518;51.776;9.370;2023-04-26T13:19:36;100460.09;;;9.68;45.09
61618;BME280;47518;51.776;9.370;2023-04-26T13:22:02;100454.84;;;9.82;46.13
61618;BME280;47518;51.776;9.370;2023-04-26T13:24:29;100459.94;;;9.61;47.18
61618;BME280;47518;51.776;9.370;2023-04-26T13:26:55;100461.31;;;9.89;45.21
61618;BME280;47518;51.776;9.370;2023-04-26T13:29:27;100472.06;;;10.23;44.52
61618;BME280;47518;51.776;9.370;2023-04-26T13:31:52;100472.03;;;10.48;44.47
61618;BME280;47518;51.776;9.370;2023-04-26T13:34:18;100466.16;;;10.84;43.94
61618;BME280;47518;51.776;9.370;2023-04-26T13:36:43;100473.91;;;10.47;43.49
61618;BME280;47518;51.776;9.370;2023-04-26T13:39:08;100474.88;;;10.71;42.56
61618;BME280;47518;51.776;9.370;2023-04-26T13:41:34;100468.63;;;10.54;41.96
61618;BME280;47518;51.776;9.370;2023-04-26T13:44:00;100467.94;;;10.03;43.38
61618;BME280;47518;51.776;9.370;2023-04-26T13:46:28;100462.34;;;9.97;42.71
61618;BME280;47518;51.776;9.370;2023-04-26T13:48:57;100466.38;;;9.68;43.46
61618;BME280;47518;51.776;9.370;2023-04-26T13:51:23;100462.00;;;9.75;41.74
61618;BME280;47518;51.776;9.370;2023-04-26T13:53:50;100456.91;;;9.88;42.97
61618;BME280;47518;51.776;9.370;2023-04-26T13:56:18;100458.47;;;10.07;46.79
61618;BME280;47518;51.776;9.370;2023-04-26T13:58:44;100462.81;;;9.84;42.83
61618;BME280;47518;51.776;9.370;2023-04-26T14:01:13;100470.63;;;9.71;43.78
61618;BME280;47518;51.776;9.370;2023-04-26T14:03:39;100464.84;;;9.65;44.43
61618;BME280;47518;51.776;9.370;2023-04-26T14:06:06;100468.44;;;9.74;43.78
61618;BME280;47518;51.776;9.370;2023-04-26T14:08:32;100470.78;;;9.69;45.42
61618;BME280;47518;51.776;9.370;2023-04-26T14:11:00;100467.09;;;9.78;43.82
61618;BME280;47518;51.776;9.370;2023-04-26T14:13:25;100469.13;;;9.92;45.44
61618;BME280;47518;51.776;9.370;2023-04-26T14:15:51;100466.09;;;10.12;44.32
61618;BME280;47518;51.776;9.370;2023-04-26T14:18:16;100468.16;;;10.26;44.88
61618;BME280;47518;51.776;9.370;2023-04-26T14:20:47;100471.00;;;10.41;44.88
61618;BME280;47518;51.776;9.370;2023-04-26T14:23:13;100465.06;;;10.13;44.35
61618;BME280;47518;51.776;9.370;2023-04-26T14:25:38;100462.69;;;10.50;44.53
61618;BME280;47518;51.776;9.370;2023-04-26T14:28:05;100465.75;;;10.56;44.71
61618;BME280;47518;51.776;9.370;2023-04-26T14:30:30;100471.72;;;10.43;44.40
61618;BME280;47518;51.776;9.370;2023-04-26T14:32:56;100466.59;;;10.07;44.66
61618;BME280;47518;51.776;9.370;2023-04-26T14:35:25;100471.53;;;9.96;45.20
61618;BME280;47518;51.776;9.370;2023-04-26T14:37:50;100466.41;;;10.17;45.51
61618;BME280;47518;51.776;9.370;2023-04-26T14:40:16;100472.88;;;10.00;46.39
61618;BME280;47518;51.776;9.370;2023-04-26T14:42:41;100468.22;;;9.51;45.01